Home > Products > Valid Products > MTR

000
SAUS43 KBIS 231253
MTRN60
METAR KN60 231252Z AUTO 00000KT 04/02 A2986 RMK AO1 SLP120 T00390017





000
SAUS43 KBIS 231154
MTRN60
METAR KN60 231152Z AUTO 21003KT 04/02 A2986 RMK AO1 SLP121 T00390022
10078 20033 58004





000
SAUS43 KBIS 231053
MTRN60
METAR KN60 231052Z AUTO 00000KT 06/03 A2987 RMK AO1 SLP121 T00560028





000
SAUS43 KBIS 230954
MTRN60
METAR KN60 230952Z AUTO 25004KT 05/03 A2987 RMK AO1 SLP121 T00500028





000
SAUS43 KBIS 230954
MTRN60
METAR KN60 230952Z AUTO 25004KT 05/03 A2987 RMK AO1 SLP121 T00500028





000
SAUS43 KBIS 230853
MTRN60
METAR KN60 230852Z AUTO 24007KT 05/03 A2987 RMK AO1 SLP121 T00500028
53001





000
SAUS43 KBIS 230753
MTRN60
METAR KN60 230752Z AUTO 25004KT 05/03 A2987 RMK AO1 SLP119 T00500033





000
SAUS43 KBIS 230753
MTRN60
METAR KN60 230752Z AUTO 25004KT 05/03 A2987 RMK AO1 SLP119 T00500033





000
SAUS43 KBIS 230653
MTRN60
METAR KN60 230652Z AUTO 25005KT 05/02 A2987 RMK AO1 SLP120 T00500022





000
SAUS43 KBIS 230554
MTRN60
METAR KN60 230552Z AUTO 26009KT 07/03 A2987 RMK AO1 SLP121 T00720033
10144 20050 401830050 52000





000
SAUS43 KBIS 230554
MTRN60
METAR KN60 230552Z AUTO 26009KT 07/03 A2987 RMK AO1 SLP121 T00720033
10144 20050 401830050 52000





000
SAUS43 KBIS 230454
MTRN60
METAR KN60 230452Z AUTO 26004KT 06/04 A2987 RMK AO1 SLP123 T00560039





000
SAUS43 KBIS 230454
MTRN60
METAR KN60 230452Z AUTO 26004KT 06/04 A2987 RMK AO1 SLP123 T00560039





000
SAUS43 KBIS 230354
MTRN60
METAR KN60 230352Z AUTO 25006KT 06/03 A2987 RMK AO1 SLP123 T00560033





000
SAUS43 KBIS 230253
MTRN60
METAR KN60 230252Z AUTO 26005KT 07/04 A2987 RMK AO1 SLP123 T00720044
53010





000
SAUS43 KBIS 230154
MTRN60
METAR KN60 230152Z AUTO 23005KT 08/03 A2986 RMK AO1 SLP118 T00780033





000
SAUS43 KBIS 230154
MTRN60
METAR KN60 230152Z AUTO 23005KT 08/03 A2986 RMK AO1 SLP118 T00780033





000
SAUS43 KBIS 230053
MTRN60
METAR KN60 230052Z AUTO 29005KT 12/04 A2985 RMK AO1 SLP112 T01170044





000
SAUS43 KBIS 230053
MTRN60
METAR KN60 230052Z AUTO 29005KT 12/04 A2985 RMK AO1 SLP112 T01170044





000
SAUS43 KBIS 222354
MTRN60
METAR KN60 222352Z AUTO 29007KT 14/05 A2984 RMK AO1 SLP108 T01440050
10183 20144 53013





000
SAUS43 KBIS 222354
MTRN60
METAR KN60 222352Z AUTO 29007KT 14/05 A2984 RMK AO1 SLP108 T01440050
10183 20144 53013





000
SAUS43 KBIS 222254
MTRN60
METAR KN60 222252Z AUTO 29013G22KT 16/05 A2982 RMK AO1 SLP101
T01560050





000
SAUS43 KBIS 222254
MTRN60
METAR KN60 222252Z AUTO 29013G22KT 16/05 A2982 RMK AO1 SLP101
T01560050





000
SAUS43 KBIS 222154
MTRN60
METAR KN60 222152Z AUTO 29017G24KT 17/04 A2980 RMK AO1 PK WND
29027/2120 SLP092 T01720044





000
SAUS43 KBIS 222053
MTRN60
METAR KN60 222052Z AUTO 28018G25KT 18/04 A2980 RMK AO1 SLP090
T01780044 55002





000
SAUS43 KBIS 221954
MTRN60
METAR KN60 221952Z AUTO 26015G22KT 18/04 A2979 RMK AO1 SLP086
T01830044





000
SAUS43 KBIS 221853
MTRN60
METAR KN60 221852Z AUTO 27013G19KT 17/06 A2979 RMK AO1 SLP088
T01670056





000
SAUS43 KBIS 221754
MTRN60
METAR KN60 221752Z AUTO 27015KT 15/06 A2980 RMK AO1 SLP092 T01500056
10150 20106 58000





000
SAUS43 KBIS 221754
MTRN60
METAR KN60 221752Z AUTO 27015KT 15/06 A2980 RMK AO1 SLP092 T01500056
10150 20106 58000





000
SAUS43 KBIS 221654
MTRN60
METAR KN60 221652Z AUTO 27016G22KT 14/06 A2980 RMK AO1 SLP091
T01390061





000
SAUS43 KBIS 221654
MTRN60
METAR KN60 221652Z AUTO 27016G22KT 14/06 A2980 RMK AO1 SLP091
T01390061





000
SAUS43 KBIS 221554
MTRN60
METAR KN60 221552Z AUTO 28018KT 13/07 A2981 RMK AO1 SLP093 T01330067





000
SAUS43 KBIS 221554
MTRN60
METAR KN60 221552Z AUTO 28018KT 13/07 A2981 RMK AO1 SLP093 T01330067





000
SAUS43 KBIS 221453
MTRN60
METAR KN60 221452Z AUTO 27009G19KT 11/07 A2981 RMK AO1 SLP092
T01110072 53022





000
SAUS43 KBIS 221354
MTRN60
METAR KN60 221352Z AUTO 28013G24KT 12/08 A2977 RMK AO1 SLP082
T01170078





000
SAUS43 KBIS 221253
MTRN60
METAR KN60 221252Z AUTO 28014G22KT 11/08 A2976 RMK AO1 SLP076
T01110078





000
SAUS43 KBIS 221154
MTRN60
METAR KN60 221152Z AUTO 28012KT 11/08 A2974 RMK AO1 SLP068 T01110078
10167 20100 53028





000
SAUS43 KBIS 221053
MTRN60
METAR KN60 221052Z AUTO 28013KT 12/08 A2970 RMK AO1 SLP053 T01170078





000
SAUS43 KBIS 220954
MTRN60
METAR KN60 220952Z AUTO 29006KT 13/07 A2967 RMK AO1 SLP042 T01280072





000
SAUS43 KBIS 220954
MTRN60
METAR KN60 220952Z AUTO 29006KT 13/07 A2967 RMK AO1 SLP042 T01280072





000
SAUS43 KBIS 220854
MTRN60
METAR KN60 220852Z AUTO 00000KT 12/09 A2965 RMK AO1 SLP036 T01170094
50007





000
SAUS43 KBIS 220753
MTRN60
METAR KN60 220752Z AUTO 21005KT 12/08 A2966 RMK AO1 SLP040 T01170083





000
SAUS43 KBIS 220653
MTRN60
METAR KN60 220652Z AUTO 18004KT 15/09 A2963 RMK AO1 SLP029 T01500094





000
SAUS43 KBIS 220553
MTRN60
METAR KN60 220552Z AUTO 18006KT 16/09 A2963 RMK AO1 SLP028 T01610089
10206 20161 402390050 53005





000
SAUS43 KBIS 220553
MTRN60
METAR KN60 220552Z AUTO 18006KT 16/09 A2963 RMK AO1 SLP028 T01610089
10206 20161 402390050 53005





000
SAUS43 KBIS 220454
MTRN60
METAR KN60 220452Z AUTO 16008KT 18/08 A2961 RMK AO1 SLP023 T01780083





000
SAUS43 KBIS 220454
MTRN60
METAR KN60 220452Z AUTO 16008KT 18/08 A2961 RMK AO1 SLP023 T01780083





000
SAUS43 KBIS 220353
MTRN60
METAR KN60 220352Z AUTO 16011KT 18/09 A2961 RMK AO1 SLP025 T01830089





000
SAUS43 KBIS 220253
MTRN60
METAR KN60 220252Z AUTO 16011KT 19/10 A2961 RMK AO1 SLP026 T01890100
58002





000
SAUS43 KBIS 220253
MTRN60
METAR KN60 220252Z AUTO 16011KT 19/10 A2961 RMK AO1 SLP026 T01890100
58002





000
SAUS43 KBIS 220154
MTRN60
METAR KN60 220152Z AUTO 13006KT 17/09 A2962 RMK AO1 SLP032 T01670094





000
SAUS43 KBIS 220154
MTRN60
METAR KN60 220152Z AUTO 13006KT 17/09 A2962 RMK AO1 SLP032 T01670094





000
SAUS43 KBIS 220053
MTRN60
METAR KN60 220052Z AUTO 13005KT 19/09 A2962 RMK AO1 SLP034 T01890089





000
SAUS43 KBIS 212354
MTRN60
METAR KN60 212352Z AUTO 06003KT 21/09 A2962 RMK AO1 SLP029 T02060089
10239 20178 56010





000
SAUS43 KBIS 212253
MTRN60
METAR KN60 212252Z AUTO 13005KT 22/09 A2962 RMK AO1 SLP029 T02220089





000
SAUS43 KBIS 212253
MTRN60
METAR KN60 212252Z AUTO 13005KT 22/09 A2962 RMK AO1 SLP029 T02220089





000
SAUS43 KBIS 212154
MTRN60
METAR KN60 212152Z AUTO 15006KT 23/08 A2963 RMK AO1 SLP032 T02330083





000
SAUS43 KBIS 212154
MTRN60
METAR KN60 212152Z AUTO 15006KT 23/08 A2963 RMK AO1 SLP032 T02330083





000
SAUS43 KBIS 212053
MTRN60
METAR KN60 212052Z AUTO 17007KT 23/07 A2965 RMK AO1 SLP037 T02280072
56022





000
SAUS43 KBIS 211954
MTRN60
METAR KN60 211952Z AUTO 16009KT 21/06 A2967 RMK AO1 SLP045 T02110061





000
SAUS43 KBIS 211854
MTRN60
METAR KN60 211852Z AUTO 15010KT 19/06 A2969 RMK AO1 SLP055 T01940056





000
SAUS43 KBIS 211754
MTRN60
METAR KN60 211752Z AUTO 15010KT 18/05 A2972 RMK AO1 SLP066 T01780050
10178 20050 58023





000
SAUS43 KBIS 211654
MTRN60
METAR KN60 211652Z AUTO 15009KT 16/04 A2974 RMK AO1 SLP076 T01560039





000
SAUS43 KBIS 211654
MTRN60
METAR KN60 211652Z AUTO 15009KT 16/04 A2974 RMK AO1 SLP076 T01560039





000
SAUS43 KBIS 211554
MTRN60
METAR KN60 211552Z AUTO 16012KT 13/03 A2977 RMK AO1 SLP084 T01330033





000
SAUS43 KBIS 211554
MTRN60
METAR KN60 211552Z AUTO 16012KT 13/03 A2977 RMK AO1 SLP084 T01330033





000
SAUS43 KBIS 211453
MTRN60
METAR KN60 211452Z AUTO 14007KT 11/04 A2979 RMK AO1 SLP094 T01060039
58011





000
SAUS43 KBIS 211354
MTRN60
METAR KN60 211352Z AUTO 12006KT 08/04 A2981 RMK AO1 SLP101 T00780039





000
SAUS43 KBIS 211253
MTRN60
METAR KN60 211252Z AUTO 10007KT 06/03 A2981 RMK AO1 SLP103 T00560028





000
SAUS43 KBIS 211154
MTRN60
METAR KN60 211152Z AUTO 10007KT 07/02 A2982 RMK AO1 SLP105 T00670022
10106 20067 56010





000
SAUS43 KBIS 211154
MTRN60
METAR KN60 211152Z AUTO 10007KT 07/02 A2982 RMK AO1 SLP105 T00670022
10106 20067 56010





000
SAUS43 KBIS 211053
MTRN60
METAR KN60 211052Z AUTO 12006KT 09/02 A2983 RMK AO1 SLP102 T00940022





000
SAUS43 KBIS 211053
MTRN60
METAR KN60 211052Z AUTO 12006KT 09/02 A2983 RMK AO1 SLP102 T00940022





000
SAUS43 KBIS 210954
MTRN60
METAR KN60 210952Z AUTO 13009KT 10/02 A2985 RMK AO1 SLP105 T01000022





000
SAUS43 KBIS 210854
MTRN60
METAR KN60 210852Z AUTO 13007KT 10/02 A2986 RMK AO1 SLP109 T01000022
58007





000
SAUS43 KBIS 210753
MTRN60
METAR KN60 210752Z AUTO 13006KT 09/02 A2987 RMK AO1 SLP115 T00940017





000
SAUS43 KBIS 210653
MTRN60
METAR KN60 210652Z AUTO 00000KT 11/02 A2988 RMK AO1 SLP117 T01060022





000
SAUS43 KBIS 210554
MTRN60
METAR KN60 210552Z AUTO 10008KT 08/03 A2988 RMK AO1 SLP120 T00780028
10156 20072 402220000 58008





000
SAUS43 KBIS 210454
MTRN60
METAR KN60 210452Z AUTO 11007KT 08/03 A2989 RMK AO1 SLP126 T00780028





000
SAUS43 KBIS 210454
MTRN60
METAR KN60 210452Z AUTO 11007KT 08/03 A2989 RMK AO1 SLP126 T00780028





000
SAUS43 KBIS 210354
MTRN60
METAR KN60 210352Z AUTO 13006KT 10/03 A2990 RMK AO1 SLP130 T01000033





000
SAUS43 KBIS 210354
MTRN60
METAR KN60 210352Z AUTO 13006KT 10/03 A2990 RMK AO1 SLP130 T01000033





000
SAUS43 KBIS 210253
MTRN60
METAR KN60 210252Z AUTO 13006KT 11/03 A2990 RMK AO1 SLP135 T01060033
58002





000
SAUS43 KBIS 210253
MTRN60
METAR KN60 210252Z AUTO 13006KT 11/03 A2990 RMK AO1 SLP135 T01060033
58002





000
SAUS43 KBIS 210154
MTRN60
METAR KN60 210152Z AUTO 14006KT 11/04 A2991 RMK AO1 SLP141 T01060039





000
SAUS43 KBIS 210154
MTRN60
METAR KN60 210152Z AUTO 14006KT 11/04 A2991 RMK AO1 SLP141 T01060039





000
SAUS43 KBIS 210053
MTRN60
METAR KN60 210052Z AUTO 14004KT 13/04 A2991 RMK AO1 SLP139 T01280039





000
SAUS43 KBIS 202354
MTRN60
METAR KN60 202352Z AUTO 14007KT 16/05 A2991 RMK AO1 SLP137 T01560050
10222 20156 56006





000
SAUS43 KBIS 202254
MTRN60
METAR KN60 202252Z AUTO 16008KT 20/05 A2991 RMK AO1 SLP135 T02000050





000
SAUS43 KBIS 202254
MTRN60
METAR KN60 202252Z AUTO 16008KT 20/05 A2991 RMK AO1 SLP135 T02000050





000
SAUS43 KBIS 202154
MTRN60
METAR KN60 202152Z AUTO 17011KT 22/05 A2992 RMK AO1 SLP137 T02170050





000
SAUS43 KBIS 202154
MTRN60
METAR KN60 202152Z AUTO 17011KT 22/05 A2992 RMK AO1 SLP137 T02170050





000
SAUS43 KBIS 202053
MTRN60
METAR KN60 202052Z AUTO 17010KT 22/05 A2993 RMK AO1 SLP139 T02170050
56022





000
SAUS43 KBIS 201954
MTRN60
METAR KN60 201952Z AUTO 17012KT 22/04 A2995 RMK AO1 SLP146 T02170044





000
SAUS43 KBIS 201853
MTRN60
METAR KN60 201852Z AUTO 16013KT 21/04 A2997 RMK AO1 SLP153 T02060039





000
SAUS43 KBIS 201754
MTRN60
METAR KN60 201752Z AUTO 16009KT 18/06 A3000 RMK AO1 SLP164 T01830056
10183 20000 58012





000
SAUS43 KBIS 201654
MTRN60
METAR KN60 201652Z AUTO 17008KT 16/06 A3001 RMK AO1 SLP173 T01560056





000
SAUS43 KBIS 201554
MTRN60
METAR KN60 201552Z AUTO 17005KT 12/05 A3002 RMK AO1 SLP177 T01220050





000
SAUS43 KBIS 201453
MTRN60
METAR KN60 201452Z AUTO 12003KT 08/06 A3003 RMK AO1 SLP182 T00780056
50000





    US Dept of Commerce
    National Oceanic and Atmospheric Administration
    National Weather Service
    1325 East West Highway
    Silver Spring, MD 20910
    Page Author: NWS Internet Services Team
Disclaimer
Information Quality
Credits
Glossary
Privacy Policy
Freedom of Information Act (FOIA)
About Us
Career Opportunities